Weber Basin Water
2837 E Hwy 193, Layton
Last Weather Update:07/31/2011 10:00:00 PM
Date
ETo
ETc
Rain
Irrigation
Req
Temp
Max
Temp
Min
Temp
Avg
Avg RH
Avg Wind
Avg Solar
inches
inches
incehs
inches
F
F
F
%
%
watts/m2
06/01/2011 0.24" 0.19" 0.00" 0.19" 77.1° 51.4° 67.2° 16.4% 4.9 MPH 255.9w/m2
06/02/2011 0.14" 0.11" 0.00" 0.11" 64.6° 41.4° 51.7° 39.4% 3.8 MPH 211.2w/m2
06/03/2011 0.19" 0.15" 0.00" 0.15" 62.9° 38.0° 50.8° 42.4% 2.7 MPH 339.4w/m2
06/04/2011 0.20" 0.16" 0.00" 0.16" 77.7° 44.0° 61.4° 33.7% 1.9 MPH 308.5w/m2
06/05/2011 0.29" 0.23" 0.00" 0.23" 85.7° 51.9° 71.6° 22.6% 3.9 MPH 373.4w/m2
06/06/2011 0.20" 0.16" 0.00" 0.16" 82.6° 53.1° 66.0° 27.4% 4.2 MPH 214.0w/m2
06/07/2011 0.19" 0.15" 0.00" 0.15" 70.0° 46.3° 58.8° 44.2% 2.7 MPH 300.3w/m2
06/08/2011 0.18" 0.15" 0.16" -0.01" 72.9° 47.6° 57.6° 53.1% 3.1 MPH 277.0w/m2
06/09/2011 0.15" 0.12" 0.03" 0.09" 63.5° 43.8° 53.4° 55.3% 2.6 MPH 269.6w/m2
06/10/2011 0.21" 0.17" 0.00" 0.17" 72.8° 43.2° 59.6° 37.3% 2.8 MPH 324.6w/m2
06/11/2011 0.20" 0.16" 0.00" 0.16" 75.4° 55.0° 65.0° 42.0% 2.5 MPH 297.1w/m2
06/12/2011 0.15" 0.12" 0.00" 0.12" 73.0° 52.6° 62.8° 47.7% 2.4 MPH 234.6w/m2
06/13/2011 0.13" 0.10" 0.06" 0.04" 73.3° 52.2° 61.4° 50.9% 2.4 MPH 183.5w/m2
06/14/2011 0.23" 0.19" 0.00" 0.19" 73.9° 49.9° 63.1° 43.5% 2.4 MPH 371.7w/m2
06/15/2011 0.25" 0.20" 0.00" 0.20" 83.7° 53.7° 68.6° 36.2% 2.8 MPH 356.2w/m2
06/16/2011 0.17" 0.13" 0.00" 0.13" 68.3° 44.9° 56.3° 45.9% 3.4 MPH 254.0w/m2
06/17/2011 0.22" 0.18" 0.00" 0.18" 70.2° 40.6° 56.2° 32.7% 2.7 MPH 368.9w/m2
06/18/2011 0.21" 0.17" 0.00" 0.17" 77.8° 47.9° 63.7° 28.4% 2.9 MPH 287.5w/m2
06/19/2011 0.06" 0.05" 0.56" -0.51" 59.9° 47.8° 51.9° 78.4% 2.2 MPH 94.7w/m2
06/20/2011 0.21" 0.16" 0.00" 0.16" 70.3° 46.8° 59.9° 51.4% 2.6 MPH 338.3w/m2
06/21/2011 0.24" 0.19" 0.00" 0.19" 78.6° 49.9° 65.7° 36.9% 2.2 MPH 368.7w/m2
06/22/2011 0.25" 0.20" 0.00" 0.20" 87.1° 55.0° 72.6° 30.8% 2.0 MPH 368.5w/m2
06/23/2011 0.26" 0.21" 0.00" 0.21" 89.2° 63.3° 78.0° 26.0% 2.3 MPH 365.4w/m2
06/24/2011 0.24" 0.20" 0.00" 0.20" 84.3° 58.7° 73.1° 33.3% 2.1 MPH 358.3w/m2
06/25/2011 0.24" 0.19" 0.00" 0.19" 82.3° 55.9° 71.3° 35.4% 1.9 MPH 360.1w/m2
06/26/2011 0.26" 0.21" 0.00" 0.21" 78.8° 56.3° 70.0° 31.2% 3.6 MPH 365.6w/m2
06/27/2011 0.26" 0.21" 0.00" 0.21" 88.3° 56.8° 73.9° 26.9% 2.4 MPH 364.0w/m2
06/28/2011 0.28" 0.22" 0.00" 0.22" 91.1° 63.8° 80.9° 16.3% 4.5 MPH 283.6w/m2
06/29/2011 0.19" 0.16" 0.00" 0.16" 86.8° 68.9° 78.9° 23.6% 4.1 MPH 158.8w/m2
06/30/2011 0.25" 0.20" 0.00" 0.20" 80.5° 58.7° 71.7° 37.2% 3.1 MPH 351.7w/m2
Totals: 6.29" 5.03" 0.81" 4.22" 91.1° 38.0° 64.8° 37.6% 2.9 MPH 300.2w/m2